Terre Rouge Seaplane Base

GF-0014 · Guyane, French Guiana

METAR history GF-0014 · Terre Rouge Seaplane Base

Below you see METARs of the last few days. Select a year to browse through older METARs, from the year 2007 onwards.

May 26, 2024

Time Code Weather Temp. Visibility Ceiling Wind METAR/SPECI
21:00
V
27 °C 10 km+ - 080° 080° 2 kt METAR SMJP 270000Z 08002KT 9999 FEW020 27/25 Q1012 NOSIG
20:00
V
27 °C 10 km+ - 060° 060° 6 kt METAR SMJP 262300Z 06006KT 9999 FEW010 SCT020 27/25 Q1011 NOSIG
19:00
V
27 °C 10 km+ - 090° 090° 4 kt METAR SMJP 262200Z 09004KT 9999 FEW010 FEW018CB SCT020 27/24 Q1011 NOSIG
18:00
V
29 °C 10 km+ - 050° 050° 6 kt METAR SMJP 262100Z 05006KT 9999 FEW010 FEW018CB SCT020 29/25 Q1010 NOSIG
17:00
V
29 °C 10 km+ - 080° 080° 6 kt METAR SMJP 262000Z 08006KT 9999 SCT015 FEW018CB 29/24 Q1011 NOSIG
16:00
V
30 °C 10 km+ - 090° 090° 6 kt METAR SMJP 261900Z 09006KT 9999 SCT015 FEW018CB 30/24 Q1010 NOSIG
15:00
V
30 °C 10 km+ - 090° 090° 7 kt METAR SMJP 261800Z 09007KT 9999 SCT012 FEW018CB 30/24 Q1011 NOSIG
14:00
V
30 °C 10 km+ - 080° 080° 8 kt METAR SMJP 261700Z 08008KT 9999 SCT012 FEW018CB 30/25 Q1012 NOSIG
13:00
V
29 °C 10 km+ - 080° 080° 8 kt METAR SMJP 261600Z 08008KT 9999 SCT012 FEW018CB 29/24 Q1014 NOSIG
12:00
V
29 °C 10 km+ - 090° 090° 10 kt METAR SMJP 261500Z 09010KT 9999 FEW018CB SCT020 29/24 Q1015 NOSIG
11:00
V
29 °C 10 km+ - 090° 090° 8 kt METAR SMJP 261400Z 09008KT 9999 SCT010 FEW018CB 29/25 Q1014 NOSIG
10:00
V
28 °C 10 km+ - 100° 100° 6 kt METAR SMJP 261300Z 10006KT 9999 SCT008 FEW015CB 28/25 Q1015 NOSIG
09:00
V
26 °C 10 km+ - 080° 080° 3 kt METAR SMJP 261200Z 08003KT 9999 FEW006 FEW015CB 26/24 Q1014 NOSIG
08:00
V
25 °C 10 km+ - 360° 360° 0 kt METAR SMJP 261100Z 00000KT 9999 FEW006 FEW015CB SCT020 25/24 Q1014 NOSIG
07:00
V
25 °C 10 km+ - 020° 020° 4 kt METAR SMJP 261000Z 02004KT 9999 FEW005 FEW015CB SCT020 25/24 Q1012 NOSIG
06:00
V
25 °C 10 km+ - 360° 360° 0 kt METAR SMJP 260900Z 00000KT 9999 FEW005 FEW015CB SCT020 25/24 Q1012 NOSIG
05:00
V
25 °C 10 km+ - 090° 090° 2 kt METAR SMJP 260800Z 09002KT 9999 SCT003 25/25 Q1011 NOSIG
04:00
V
25 °C 10 km+ - 060° 060° 3 kt METAR SMJP 260700Z 06003KT 9999 FEW008 25/25 Q1011 NOSIG
03:00
V
25 °C 10 km+ - 040° 040° 5 kt METAR SMJP 260600Z 04005KT 9999 FEW005 25/25 Q1012 NOSIG
02:00
V
25 °C 10 km+ - Var Var 2 kt METAR SMJP 260500Z VRB02KT 9999 FEW005 SCT025 25/24 Q1012 NOSIG
01:00
V
25 °C 10 km+ - 100° 100° 3 kt METAR SMJP 260400Z 10003KT 9999 FEW005 SCT025 25/24 Q1013 NOSIG

May 25, 2024

Time Code Weather Temp. Visibility Ceiling Wind METAR/SPECI
23:00
V
25 °C 10 km+ - 080° 080° 4 kt METAR SMJP 260200Z 08004KT 9999 FEW010 FEW015CB SCT025 25/25 Q1013 NOSIG
22:00
V
26 °C 10 km+ - 360° 360° 0 kt METAR SMJP 260100Z 00000KT 9999 FEW010 FEW012CB SCT020 26/25 Q1013 RETS NOSIG
21:00
V
26 °C 8 km - 110° 110° 6 kt METAR SMJP 260000Z 11006KT 8000 -TSRA FEW010 FEW012CB SCT020 26/25 Q1012 NOSIG
20:00
M
26 °C 8 km 2,000 ft 090° 090° 10 kt METAR SMJP 252300Z 09010KT 8000 -TSRA FEW010 SCT012CB BKN020 26/25 Q1012 RESHRA NOSIG
19:30
M
30 °C 5 km 2,000 ft 070° 070° 12 - 30 kt METAR SMJP 252230Z 07012G30KT 5000 TSRA SCT010 SCT012CB BKN020 30/25 Q1012 BECMG AT2254 3000
19:00
V
31 °C 10 km+ - 060° 060° 5 kt METAR SMJP 252200Z 06005KT 9999 TS VCSH FEW012 FEW018CB SCT020 31/24 Q1011 NOSIG
18:00
V
31 °C 10 km+ - 110° 110° 7 kt METAR SMJP 252100Z 11007KT 9999 FEW015 FEW020CB 31/25 Q1010 NOSIG
17:00
V
32 °C 10 km+ - 070° 070° 5 kt METAR SMJP 252000Z 07005KT 9999 SCT018 FEW020CB 32/25 Q1010 NOSIG
16:00
V
33 °C 10 km+ - 090° 090° 6 kt METAR SMJP 251900Z 09006KT 9999 SCT018 FEW020CB 33/24 Q1010 NOSIG
15:00
V
33 °C 10 km+ - 080° 080° 9 kt METAR SMJP 251800Z 08009KT 9999 SCT015 33/24 Q1010 NOSIG
14:00
V
33 °C 10 km+ - 090° 090° 9 kt METAR SMJP 251700Z 09009KT 9999 SCT015 33/24 Q1011 NOSIG
13:00
V
32 °C 10 km+ - 100° 100° 7 kt METAR SMJP 251600Z 10007KT 9999 VCSH SCT015 32/25 Q1012 NOSIG
12:00
M
31 °C 10 km+ 1,000 ft 090° 090° 6 kt METAR SMJP 251500Z 09006KT 9999 BKN010 31/25 Q1013 NOSIG
11:00
V
29 °C 10 km+ - 100° 100° 6 kt METAR SMJP 251400Z 10006KT 9999 SCT008 29/25 Q1013 NOSIG
10:00
V
28 °C 10 km+ - 270° 270° 4 kt METAR SMJP 251300Z 27004KT 9999 SCT008 FEW015CB 28/25 Q1014 NOSIG
09:00
V
26 °C 10 km+ - 270° 270° 4 kt METAR SMJP 251200Z 27004KT 9999 SCT006 FEW015CB SCT020 26/25 Q1014 NOSIG
08:00
M
25 °C 10 km+ 2,000 ft 090° 090° 4 kt METAR SMJP 251100Z 09004KT 9999 -SHRA SCT008 FEW015CB BKN020 25/25 Q1013 NOSIG
07:00
M
25 °C 10 km+ 2,000 ft 300° 300° 2 kt METAR SMJP 251000Z 30002KT 9999 FEW005 FEW015CB BKN020 25/24 Q1012 NOSIG
06:00
V
25 °C 10 km+ - 060° 060° 4 kt METAR SMJP 250900Z 06004KT 9999 FEW005 FEW015CB SCT020 25/24 Q1012 NOSIG
05:00
V
25 °C 10 km+ - 080° 080° 4 kt METAR SMJP 250800Z 08004KT 9999 -SHRA FEW005 FEW015CB SCT020 25/24 Q1012 NOSIG
04:00
V
25 °C 10 km+ - 360° 360° 0 kt METAR SMJP 250700Z 00000KT 9999 SCT005 SCT020 25/24 Q1012 NOSIG
01:00
V
25 °C 10 km+ - 040° 040° 4 kt METAR SMJP 250400Z 04004KT 9999 FEW006 SCT020 25/25 Q1013 NOSIG
00:00
V
25 °C 10 km+ - 080° 080° 4 kt METAR SMJP 250300Z 08004KT 9999 FEW008 SCT020 25/25 Q1013 NOSIG

May 24, 2024

Time Code Weather Temp. Visibility Ceiling Wind METAR/SPECI
23:00
V
25 °C 10 km+ - 090° 090° 4 kt METAR SMJP 250200Z 09004KT 9999 FEW008 FEW015CB SCT022 25/25 Q1013 NOSIG
22:00
V
26 °C 10 km+ - 060° 060° 3 kt METAR SMJP 250100Z 06003KT 9999 FEW010 SCT025 26/25 Q1013 NOSIG
21:00
V
26 °C 10 km+ - 100° 100° 4 kt METAR SMJP 250000Z 10004KT 9999 FEW010 FEW015CB SCT025 26/25 Q1012 NOSIG
20:00
V
26 °C 10 km+ - 080° 080° 4 kt METAR SMJP 242300Z 08004KT 9999 FEW008 FEW015CB SCT025 26/25 Q1011 NOSIG
19:00
M
26 °C 8 km 2,500 ft 090° 090° 6 kt METAR SMJP 242200Z 09006KT 8000 -SHRA FEW008 FEW015CB BKN025 26/25 Q1010 NOSIG
18:00
V
27 °C 8 km - 090° 090° 8 kt METAR SMJP 242100Z 09008KT 8000 -SHRA SCT010 FEW015CB SCT025 27/26 Q1010 RETS NOSIG
17:00
V
30 °C 10 km+ - 360° 360° 10 kt METAR SMJP 242000Z 36010KT 9999 TS VCSH SCT010 FEW012CB SCT020 30/25 Q1009 NOSIG
16:00
V
31 °C 10 km+ - 360° 360° 8 kt METAR SMJP 241900Z 36008KT 9999 VCSH SCT010 FEW015CB SCT020 31/25 Q1009 RETS NOSIG
15:00
V
31 °C 10 km+ - 330° 330° 7 kt METAR SMJP 241800Z 33007KT 9999 TS SCT008 FEW015CB SCT018 31/25 Q1010 NOSIG
14:00
V
31 °C 10 km+ - 270° 270° 8 kt METAR SMJP 241700Z 27008KT 9999 SCT008 FEW015CB SCT018 31/25 Q1011 NOSIG
13:00
V
31 °C 10 km+ - 010° 010° 4 kt METAR SMJP 241600Z 01004KT 9999 FEW007 FEW015CB SCT018 31/25 Q1012 NOSIG
12:00
V
30 °C 10 km+ - 050° 050° 4 kt METAR SMJP 241500Z 05004KT 9999 SCT006 FEW015CB SCT018 30/26 Q1012 RETS NOSIG
11:00
V
29 °C 10 km+ - 090° 090° 4 kt METAR SMJP 241400Z 09004KT 9999 TS SCT004 FEW012CB SCT015 29/25 Q1012 NOSIG
10:00
V
27 °C 10 km+ - 060° 060° 5 kt METAR SMJP 241300Z 06005KT 9999 TS VCSH SCT004 FEW012CB SCT015 27/25 Q1013 NOSIG
09:00
V
26 °C 10 km+ - 360° 360° 0 kt METAR SMJP 241200Z 00000KT 9999 TS SCT006 FEW015CB SCT020 26/25 Q1012 NOSIG
08:00
V
25 °C 10 km+ - 360° 360° 0 kt METAR SMJP 241100Z 00000KT 9999 FEW006 FEW015CB SCT025 25/24 Q1012 NOSIG
07:00
V
25 °C 10 km+ - 360° 360° 0 kt METAR SMJP 241000Z 00000KT 9999 FEW005 FEW015CB SCT025 25/24 Q1011 NOSIG
06:00
V
25 °C 10 km+ - 150° 150° 2 kt METAR SMJP 240900Z 15002KT 9999 FEW005 FEW015CB SCT020 25/24 Q1011 NOSIG
05:00
V
25 °C 10 km+ - 150° 150° 4 kt METAR SMJP 240800Z 15004KT 9999 -RA FEW005 FEW015CB SCT018 25/24 Q1011 NOSIG
04:00
M
25 °C 6 km - 160° 160° 5 kt METAR SMJP 240700Z 16005KT 6000 -SHRA SCT004 FEW015CB SCT018 25/25 Q1011 NOSIG
03:00
V
25 °C 10 km+ - 090° 090° 4 kt METAR SMJP 240600Z 09004KT 9999 -RA SCT004 25/25 Q1011 NOSIG
Report a change